Nearby METAR Reports

 

KSJC - San Jose, California, USA
Distance from station: NE 9mi, 14km
Updated: Wed, 05-Oct-2022 10:53am CDT
Mist, Overcast
Mist, Overcast
 Wind from calm
Wind: Calm
Temperature: 59°F , 15°C
Dew Point: 55°F , 13°C
Humidity: 88%
Barometer: 30.04 inHg , 1017.3 hPa
Summary: Mist
Clouds: Overcast
Visibility: 4 miles , 6 km
Cloud details: Few Clouds 100 ft
Mostly cloudy 700 ft
Overcast 900 ft
2022/10/05 15:53 KSJC 051553Z 00000KT 4SM BR FEW001 BKN007 OVC009 15/13 A3004 RMK AO2 SLP171 T01500128
KNUQ - Moffett Nas/Mtn, California, USA
Distance from station: N 9mi, 14km
Updated: Wed, 05-Oct-2022 10:55am CDT
Mist, Overcast
Mist, Overcast
 Wind from calm
Wind: Calm
Temperature: 59°F , 15°C
Dew Point: 55°F , 13°C
Humidity: 88%
Barometer: 30.04 inHg , 1017.3 hPa
Summary: Mist
Clouds: Overcast
Visibility: 3 miles , 5 km
Cloud details: Overcast 500 ft
2022/10/05 15:55 KNUQ 051555Z AUTO 00000KT 3SM BR OVC005 15/13 A3004 RMK AO2
KPAO - Palo Alto, California, USA
Distance from station: NNW 14mi, 23km
Updated: Wed, 05-Oct-2022 10:47am CDT
Mist, Overcast
Mist, Overcast
 Wind from varies
Wind: varies 3 mph , 6 km/h
Temperature: 55°F , 13°C
Dew Point: 55°F , 13°C
Humidity: 100%
Barometer: 30.05 inHg , 1017.6 hPa
Summary: Mist
Clouds: Overcast
Visibility: 4 miles , 6 km
Cloud details: Overcast 400 ft
2022/10/05 15:47 KPAO 051547Z VRB03KT 4SM BR OVC004 13/13 A3005
 
KRHV - San Jose/Reid, California, USA
Distance from station: ENE 12mi, 19km
Updated: Wed, 05-Oct-2022 10:50am CDT
Mist, Overcast
Mist, Overcast
 Wind from calm
Wind: Calm
Temperature: 55°F , 13°C
Dew Point: 55°F , 13°C
Humidity: 100%
Barometer: 30.05 inHg , 1017.6 hPa
Summary: Mist
Clouds: Overcast
Visibility: 1 mile , 2 km
Cloud details: Overcast 500 ft
2022/10/05 15:50 KRHV 051550Z 00000KT 1SM BR OVC005 13/13 A3005
KOAK - Oakland, California, USA
Distance from station: NNW 31mi, 50km
Updated: Wed, 05-Oct-2022 10:53am CDT
Mostly cloudy
Mostly cloudy
 Wind from calm
Wind: Calm
Temperature: 59°F , 15°C
Dew Point: 55°F , 13°C
Humidity: 88%
Barometer: 30.04 inHg , 1017.3 hPa
Clouds: Mostly cloudy
Visibility: 10 miles , 16 km
Cloud details: Mostly cloudy 700 ft
Mostly cloudy 800 ft
2022/10/05 15:53 KOAK 051553Z 00000KT 10SM BKN007 BKN008 15/13 A3004 RMK AO2 SLP173 T01500133
KSQL - San Carlos Airpo, California, USA
Distance from station: NW 21mi, 34km
Updated: Wed, 05-Oct-2022 9:47am CDT
Partly cloudy
Partly cloudy
 Wind from calm
Wind: Calm
Temperature: 55°F , 13°C
Dew Point: 54°F , 12°C
Humidity: 94%
Barometer: 30.03 inHg , 1016.9 hPa
Clouds: Partly cloudy
Visibility: 10 miles , 16 km
Cloud details: Partly cloudy 1000 ft
2022/10/05 14:47 KSQL 051447Z 00000KT 10SM SCT010 13/12 A3003
 
KSFO - San Francisco, California, USA
Distance from station: NW 30mi, 49km
Updated: Wed, 05-Oct-2022 10:56am CDT
Partly cloudy
Partly cloudy
 Wind from WNW
Wind: WNW 12 mph , 19 km/h
Temperature: 57°F , 14°C
Dew Point: 55°F , 13°C
Humidity: 94%
Barometer: 30.03 inHg , 1016.9 hPa
Clouds: Partly cloudy
Visibility: 10 miles , 16 km
Cloud details: Partly cloudy 500 ft
2022/10/05 15:56 KSFO 051556Z 30010KT 10SM SCT005 14/13 A3003 RMK AO2 SLP170 T01440128
KE16 - San Martin, California, USA
Distance from station: ESE 27mi, 43km
Updated: Wed, 05-Oct-2022 10:55am CDT
Mist, Overcast
Mist, Overcast
 Wind from NNW
Wind: NNW 6 mph , 9 km/h
Temperature: 55°F , 13°C
Dew Point: 54°F , 12°C
Humidity: 94%
Barometer: 30.05 inHg , 1017.6 hPa
Summary: Mist
Clouds: Overcast
Visibility: 1 1/2 miles , 2.4 km
Cloud details: Overcast 300 ft
2022/10/05 15:55 KE16 051555Z AUTO 33005KT 1 1/2SM BR OVC003 13/12 A3005 RMK AO2 PWINO PNO
KWVI - Watsonville, California, USA
Distance from station: SSE 27mi, 44km
Updated: Wed, 05-Oct-2022 10:53am CDT
Fog, Overcast
Fog, Overcast
 Wind from NNE
Wind: NNE 3 mph , 6 km/h
Temperature: 54°F , 12°C
Dew Point: 54°F , 12°C
Humidity: 100%
Barometer: 30.04 inHg , 1017.3 hPa
Summary: Fog
Clouds: Overcast
Visibility: 1/4 mile , 0.4 km
Cloud details: Overcast 200 ft
2022/10/05 15:53 KWVI 051553Z AUTO 03003KT 1/4SM FG VV002 12/12 A3004 RMK AO2 SLP173 T01170117
 
KHAF - Half Moon Bay, California, USA
Distance from station: WNW 31mi, 50km
Updated: Wed, 05-Oct-2022 10:55am CDT
Mist, Overcast
Mist, Overcast
 Wind from N
Wind: N 6 mph , 9 km/h
Temperature: 55°F , 13°C
Dew Point: 55°F , 13°C
Humidity: 100%
Barometer: 30.05 inHg , 1017.6 hPa
Summary: Mist
Clouds: Overcast
Visibility: 4 miles , 6 km
Cloud details: Overcast 400 ft
2022/10/05 15:55 KHAF 051555Z AUTO 35005KT 4SM BR OVC004 13/13 A3005 RMK AO2
KHWD - Hayward, California, USA
Distance from station: N 28mi, 44km
Updated: Wed, 05-Oct-2022 10:54am CDT
Overcast
Overcast
 Wind from calm
Wind: Calm
Temperature: 57°F , 14°C
Dew Point: 55°F , 13°C
Humidity: 94%
Barometer: 30.03 inHg , 1016.9 hPa
Clouds: Overcast
Visibility: 10 miles , 16 km
Cloud details: Overcast 700 ft
2022/10/05 15:54 KHWD 051554Z 00000KT 10SM OVC007 14/13 A3003 RMK AO2 SLP180 T01440133
KLVK - Livermore, California, USA
Distance from station: NNE 31mi, 51km
Updated: Wed, 05-Oct-2022 10:53am CDT
Clear
Clear
 Wind from calm
Wind: Calm
Temperature: 61°F , 16°C
Dew Point: 54°F , 12°C
Humidity: 77%
Barometer: 30.02 inHg , 1016.6 hPa
Clouds: Clear
Visibility: 10 miles , 16 km
2022/10/05 15:53 KLVK 051553Z 00000KT 10SM CLR 16/12 A3002 RMK AO2 SLP164 T01560122